createdAt,value
2018-11-07T00:00:05.920Z,88.20
2018-11-07T00:02:34.863Z,88.20
2018-11-07T00:05:04.046Z,88.30
2018-11-07T00:07:33.313Z,88.60
2018-11-07T00:10:19.104Z,89.30
2018-11-07T00:12:48.150Z,88.60
2018-11-07T00:15:17.628Z,88.80
2018-11-07T00:17:46.912Z,89.00
2018-11-07T00:20:15.877Z,89.10
2018-11-07T00:22:44.796Z,88.80
2018-11-07T00:25:13.792Z,89.50
2018-11-07T00:27:42.779Z,89.50
2018-11-07T00:30:12.099Z,89.90
2018-11-07T00:32:41.206Z,90.00
2018-11-07T00:35:11.826Z,89.90
2018-11-07T00:37:41.478Z,90.10
2018-11-07T00:40:10.651Z,90.10
2018-11-07T00:42:40.016Z,90.10
2018-11-07T00:45:10.993Z,90.20
2018-11-07T00:47:40.021Z,90.10
2018-11-07T00:50:12.462Z,90.10
2018-11-07T00:52:42.037Z,90.20
2018-11-07T00:55:11.436Z,90.10
2018-11-07T00:57:40.585Z,90.10
2018-11-07T01:00:12.372Z,90.10
2018-11-07T01:02:41.438Z,90.20
2018-11-07T01:05:11.933Z,90.20
2018-11-07T01:07:41.865Z,90.20
2018-11-07T01:10:11.137Z,90.30
2018-11-07T01:12:40.910Z,90.30
2018-11-07T01:15:10.907Z,90.30
2018-11-07T01:17:39.944Z,90.30
2018-11-07T01:20:10.284Z,90.20
2018-11-07T01:22:39.276Z,90.20
2018-11-07T01:25:08.696Z,90.30
2018-11-07T01:27:37.650Z,90.20
2018-11-07T01:30:08.870Z,90.20
2018-11-07T01:32:38.068Z,90.20
2018-11-07T01:35:07.070Z,90.20
2018-11-07T01:37:36.004Z,90.30
2018-11-07T01:40:07.618Z,90.30
2018-11-07T01:42:36.579Z,90.20
2018-11-07T01:45:07.072Z,90.20
2018-11-07T01:47:36.165Z,90.20
2018-11-07T01:50:06.545Z,90.20
2018-11-07T01:52:35.537Z,90.10
2018-11-07T01:55:05.139Z,90.20
2018-11-07T01:57:34.535Z,90.20
2018-11-07T02:00:03.888Z,90.50
2018-11-07T02:02:32.807Z,90.10
2018-11-07T02:05:01.743Z,90.20
2018-11-07T02:07:30.765Z,90.30
2018-11-07T02:09:59.857Z,90.30
2018-11-07T02:12:28.867Z,90.30
2018-11-07T02:14:57.774Z,90.40
2018-11-07T02:17:26.745Z,90.50
2018-11-07T02:19:55.705Z,90.50
2018-11-07T02:22:25.073Z,90.50
2018-11-07T02:24:54.097Z,90.70
2018-11-07T02:27:23.185Z,90.70
2018-11-07T02:29:52.308Z,90.70
2018-11-07T02:32:21.620Z,90.70
2018-11-07T02:34:50.656Z,90.70
2018-11-07T02:37:19.572Z,90.70
2018-11-07T02:39:48.662Z,90.60
2018-11-07T02:42:17.714Z,90.50
2018-11-07T02:44:46.773Z,90.40
2018-11-07T02:47:15.676Z,90.50
2018-11-07T02:49:44.677Z,90.50
2018-11-07T02:52:13.974Z,90.50
2018-11-07T02:54:43.616Z,90.50
2018-11-07T02:57:12.927Z,90.50
2018-11-07T02:59:42.237Z,90.50
2018-11-07T03:02:11.415Z,90.50
2018-11-07T03:04:40.468Z,90.50
2018-11-07T03:07:09.517Z,90.40
2018-11-07T03:09:38.502Z,90.40
2018-11-07T03:12:07.502Z,90.50
2018-11-07T03:14:36.489Z,90.50
2018-11-07T03:17:05.552Z,90.50
2018-11-07T03:19:34.536Z,90.60
2018-11-07T03:22:03.568Z,90.70
2018-11-07T03:24:32.594Z,90.80
2018-11-07T03:27:01.618Z,90.70
2018-11-07T03:29:30.584Z,90.80
2018-11-07T03:31:59.561Z,90.80
2018-11-07T03:34:28.589Z,90.70
2018-11-07T03:36:57.685Z,90.80
2018-11-07T03:39:26.616Z,90.70
2018-11-07T03:41:55.670Z,91.00
2018-11-07T03:44:24.752Z,90.70
2018-11-07T03:46:53.684Z,90.70
2018-11-07T03:49:22.608Z,90.70
2018-11-07T03:51:51.577Z,90.70
2018-11-07T03:54:20.592Z,90.70
2018-11-07T03:56:49.560Z,90.80
2018-11-07T03:59:18.553Z,90.80
2018-11-07T04:01:47.497Z,90.90
2018-11-07T04:04:16.401Z,90.80
2018-11-07T04:06:45.409Z,90.80
2018-11-07T04:09:14.380Z,90.70
2018-11-07T04:11:44.036Z,90.60
2018-11-07T04:14:13.089Z,90.70
2018-11-07T04:16:42.059Z,90.80
2018-11-07T04:19:11.055Z,90.80
2018-11-07T04:21:40.041Z,90.80
2018-11-07T04:24:09.040Z,90.70
2018-11-07T04:26:38.988Z,90.60
2018-11-07T04:29:08.063Z,90.60
2018-11-07T04:31:37.038Z,90.70
2018-11-07T04:34:06.156Z,90.60
2018-11-07T04:36:35.243Z,90.70
2018-11-07T04:39:05.477Z,90.70
2018-11-07T04:41:34.463Z,90.70
2018-11-07T04:44:03.529Z,90.70
2018-11-07T04:46:32.461Z,90.70
2018-11-07T04:49:01.353Z,90.60
2018-11-07T04:51:30.306Z,90.50
2018-11-07T04:53:59.245Z,90.50
2018-11-07T04:56:28.331Z,90.60
2018-11-07T04:58:57.246Z,90.60
2018-11-07T05:01:26.250Z,90.50
2018-11-07T05:03:55.927Z,90.50
2018-11-07T05:06:24.854Z,90.50
2018-11-07T05:08:54.156Z,90.40
2018-11-07T05:11:23.136Z,90.40
2018-11-07T05:13:52.267Z,90.40
2018-11-07T05:16:21.269Z,90.30
2018-11-07T05:18:50.308Z,90.30
2018-11-07T05:21:19.280Z,90.30
2018-11-07T05:23:48.238Z,90.40
2018-11-07T05:26:17.310Z,90.30
2018-11-07T05:28:46.172Z,90.40
2018-11-07T05:31:15.102Z,90.50
2018-11-07T05:33:44.055Z,90.40
2018-11-07T05:36:13.015Z,90.40
2018-11-07T05:38:41.912Z,90.40
2018-11-07T05:41:11.177Z,90.40
2018-11-07T05:43:40.079Z,90.50
2018-11-07T05:46:09.042Z,90.40
2018-11-07T05:48:38.013Z,90.50
2018-11-07T05:51:06.956Z,90.50
2018-11-07T05:53:36.041Z,90.60
2018-11-07T05:56:05.366Z,90.60
2018-11-07T05:58:34.322Z,90.70
2018-11-07T06:01:03.291Z,90.70
2018-11-07T06:03:32.215Z,90.60
2018-11-07T06:06:01.208Z,90.60
2018-11-07T06:08:30.808Z,90.60
2018-11-07T06:10:59.818Z,90.60
2018-11-07T06:13:28.796Z,90.60
2018-11-07T06:15:57.821Z,90.60
2018-11-07T06:18:26.745Z,90.60
2018-11-07T06:20:57.004Z,90.70
2018-11-07T06:23:25.958Z,90.70
2018-11-07T06:25:54.883Z,90.80
2018-11-07T06:28:23.784Z,90.70
2018-11-07T06:30:52.774Z,90.70
2018-11-07T06:33:21.724Z,90.70
2018-11-07T06:35:50.708Z,90.90
2018-11-07T06:38:19.699Z,90.90
2018-11-07T06:40:48.609Z,90.90
2018-11-07T06:43:17.551Z,90.90
2018-11-07T06:45:46.901Z,90.90
2018-11-07T06:48:15.845Z,91.00
2018-11-07T06:50:44.819Z,91.10
2018-11-07T06:53:14.137Z,91.10
2018-11-07T06:55:43.030Z,91.10
2018-11-07T06:58:12.008Z,91.10
2018-11-07T07:00:41.268Z,91.20
2018-11-07T07:03:14.387Z,91.10
2018-11-07T07:05:43.616Z,91.10
2018-11-07T07:08:12.561Z,91.40
2018-11-07T07:10:41.560Z,91.10
2018-11-07T07:13:10.503Z,91.00
2018-11-07T07:15:39.447Z,91.10
2018-11-07T07:18:08.581Z,91.20
2018-11-07T07:20:37.535Z,91.10
2018-11-07T07:23:06.490Z,91.10
2018-11-07T07:25:35.843Z,91.00
2018-11-07T07:28:04.965Z,91.10
2018-11-07T07:30:33.960Z,91.00
2018-11-07T07:33:02.956Z,91.00
2018-11-07T07:35:31.848Z,91.00
2018-11-07T07:38:00.834Z,91.10
2018-11-07T07:40:29.752Z,91.00
2018-11-07T07:42:58.712Z,91.00
2018-11-07T07:45:27.788Z,91.00
2018-11-07T07:47:56.665Z,91.00
2018-11-07T07:50:25.645Z,90.90
2018-11-07T07:52:54.693Z,90.80
2018-11-07T07:55:23.533Z,90.90
2018-11-07T07:57:53.093Z,90.90
2018-11-07T08:00:22.018Z,90.90
2018-11-07T08:02:52.445Z,90.90
2018-11-07T08:05:21.655Z,90.90
2018-11-07T08:07:50.587Z,90.80
2018-11-07T08:10:20.763Z,90.70
2018-11-07T08:12:51.083Z,90.70
2018-11-07T08:15:20.620Z,90.60
2018-11-07T08:17:49.568Z,90.60
2018-11-07T08:20:18.935Z,90.50
2018-11-07T08:22:48.560Z,90.80
2018-11-07T08:25:17.500Z,90.50
2018-11-07T08:27:46.475Z,90.40
2018-11-07T08:30:18.145Z,90.30
2018-11-07T08:32:47.095Z,90.20
2018-11-07T08:35:16.377Z,90.10
2018-11-07T08:37:46.076Z,90.10
2018-11-07T08:40:20.288Z,90.00
2018-11-07T08:42:49.835Z,89.80
2018-11-07T08:45:19.271Z,89.70
2018-11-07T08:47:48.820Z,89.60
2018-11-07T08:50:19.144Z,89.70
2018-11-07T08:52:48.521Z,89.50
2018-11-07T08:55:18.838Z,89.50
2018-11-07T08:57:47.761Z,89.40
2018-11-07T09:00:18.137Z,89.20
2018-11-07T09:02:47.296Z,89.30
2018-11-07T09:05:17.382Z,88.90
2018-11-07T09:07:46.933Z,88.50
2018-11-07T09:10:17.593Z,88.20
2018-11-07T09:12:46.768Z,88.20
2018-11-07T09:15:17.594Z,88.20
2018-11-07T09:17:46.553Z,87.90
2018-11-07T09:20:17.172Z,88.10
2018-11-07T09:22:46.109Z,88.10
2018-11-07T09:25:15.816Z,87.60
2018-11-07T09:27:45.477Z,87.50
2018-11-07T09:30:16.188Z,87.60
2018-11-07T09:32:45.135Z,86.70
2018-11-07T09:35:14.469Z,87.00
2018-11-07T09:37:43.408Z,86.70
2018-11-07T09:40:14.010Z,85.80
2018-11-07T09:42:43.529Z,85.50
2018-11-07T09:45:14.016Z,85.40
2018-11-07T09:47:43.761Z,85.00
2018-11-07T09:50:13.866Z,84.70
2018-11-07T09:52:43.066Z,84.20
2018-11-07T09:55:13.820Z,84.10
2018-11-07T09:57:42.863Z,83.50
2018-11-07T10:00:14.840Z,83.30
2018-11-07T10:02:44.447Z,82.70
2018-11-07T10:05:14.479Z,81.80
2018-11-07T10:07:43.389Z,81.50
2018-11-07T10:10:14.952Z,81.80
2018-11-07T10:12:44.354Z,81.00
2018-11-07T10:15:13.649Z,81.00
2018-11-07T10:17:42.732Z,79.40
2018-11-07T10:20:14.628Z,79.30
2018-11-07T10:22:44.314Z,79.00
2018-11-07T10:25:13.655Z,79.40
2018-11-07T10:27:43.065Z,78.00
2018-11-07T10:30:13.756Z,77.70
2018-11-07T10:32:44.061Z,77.40
2018-11-07T10:35:13.232Z,77.00
2018-11-07T10:37:42.404Z,76.10
2018-11-07T10:40:13.962Z,74.10
2018-11-07T10:42:43.330Z,71.40
2018-11-07T10:45:12.611Z,70.30
2018-11-07T10:47:42.348Z,69.40
2018-11-07T10:50:12.443Z,67.30
2018-11-07T10:52:42.244Z,64.60
2018-11-07T10:55:12.101Z,63.00
2018-11-07T10:57:41.053Z,62.20
2018-11-07T11:00:16.691Z,61.10
2018-11-07T11:02:45.661Z,60.70
2018-11-07T11:05:16.248Z,59.10
2018-11-07T11:07:45.363Z,59.30
2018-11-07T11:10:14.561Z,57.10
2018-11-07T11:12:44.521Z,57.50
2018-11-07T11:15:13.542Z,56.20
2018-11-07T11:17:42.920Z,55.30
2018-11-07T11:20:13.526Z,55.30
2018-11-07T11:22:42.531Z,54.40
2018-11-07T11:25:11.673Z,55.50
2018-11-07T11:27:40.746Z,56.80
2018-11-07T11:30:10.187Z,55.50
2018-11-07T11:32:39.440Z,54.30
2018-11-07T11:35:10.448Z,54.00
2018-11-07T11:37:39.504Z,54.10
2018-11-07T11:40:10.898Z,53.20
2018-11-07T11:42:40.286Z,52.20
2018-11-07T11:45:10.944Z,50.90
2018-11-07T11:47:40.292Z,51.50
2018-11-07T11:50:12.000Z,50.40
2018-11-07T11:52:41.648Z,51.00
2018-11-07T11:55:11.168Z,50.80
2018-11-07T11:57:40.894Z,50.50
2018-11-07T12:00:11.965Z,50.80
2018-11-07T12:02:40.728Z,50.20
2018-11-07T12:05:11.425Z,50.30
2018-11-07T12:07:40.945Z,49.70
2018-11-07T12:10:16.116Z,49.00
2018-11-07T12:12:46.691Z,48.70
2018-11-07T12:15:16.765Z,47.60
2018-11-07T12:17:45.787Z,47.30
2018-11-07T12:20:14.686Z,47.40
2018-11-07T12:22:43.698Z,47.10
2018-11-07T12:25:16.548Z,46.50
2018-11-07T12:27:45.636Z,46.10
2018-11-07T12:30:16.576Z,45.40
2018-11-07T12:32:46.784Z,46.00
2018-11-07T12:35:16.304Z,45.10
2018-11-07T12:37:45.313Z,44.80
2018-11-07T12:40:14.919Z,44.60
2018-11-07T12:42:43.989Z,45.50
2018-11-07T12:45:14.116Z,45.50
2018-11-07T12:47:43.103Z,46.10
2018-11-07T12:50:17.516Z,46.90
2018-11-07T12:52:47.008Z,45.40
2018-11-07T12:55:16.596Z,46.00
2018-11-07T12:57:45.621Z,46.30
2018-11-07T13:00:17.145Z,46.10
2018-11-07T13:02:46.136Z,45.70
2018-11-07T13:05:16.876Z,44.80
2018-11-07T13:07:46.872Z,44.30
2018-11-07T13:10:17.041Z,43.70
2018-11-07T13:12:46.453Z,43.30
2018-11-07T13:15:15.887Z,42.70
2018-11-07T13:17:45.723Z,42.40
2018-11-07T13:20:16.849Z,42.20
2018-11-07T13:22:47.008Z,42.20
2018-11-07T13:25:16.726Z,42.80
2018-11-07T13:27:45.896Z,43.20
2018-11-07T13:30:16.065Z,44.60
2018-11-07T13:32:45.020Z,45.70
2018-11-07T13:35:14.810Z,47.30
2018-11-07T13:37:44.960Z,48.60
2018-11-07T13:40:15.770Z,50.00
2018-11-07T13:42:44.720Z,51.50
2018-11-07T13:45:15.989Z,52.60
2018-11-07T13:47:45.939Z,53.80
2018-11-07T13:50:15.476Z,54.70
2018-11-07T13:52:44.391Z,55.40
2018-11-07T13:55:14.104Z,56.20
2018-11-07T13:57:43.400Z,57.00
2018-11-07T14:00:15.300Z,57.80
2018-11-07T14:02:44.639Z,58.20
2018-11-07T14:05:13.844Z,59.00
2018-11-07T14:07:42.768Z,59.30
2018-11-07T14:10:13.971Z,60.00
2018-11-07T14:12:43.080Z,60.50
2018-11-07T14:15:13.200Z,61.10
2018-11-07T14:17:42.625Z,61.60
2018-11-07T14:20:11.659Z,61.90
2018-11-07T14:22:40.932Z,62.00
2018-11-07T14:25:10.562Z,62.00
2018-11-07T14:27:39.694Z,62.10
2018-11-07T14:30:10.142Z,62.60
2018-11-07T14:32:42.744Z,62.60
2018-11-07T14:35:11.960Z,62.80
2018-11-07T14:37:40.995Z,62.90
2018-11-07T14:40:10.117Z,63.20
2018-11-07T14:42:39.335Z,63.40
2018-11-07T14:45:09.417Z,63.70
2018-11-07T14:47:38.488Z,64.00
2018-11-07T14:50:08.525Z,64.40
2018-11-07T14:52:37.536Z,64.70
2018-11-07T14:55:06.962Z,65.40
2018-11-07T14:57:36.301Z,64.90
2018-11-07T15:00:09.647Z,65.30
2018-11-07T15:02:39.108Z,65.40
2018-11-07T15:05:09.339Z,65.90
2018-11-07T15:07:38.427Z,66.40
2018-11-07T15:10:08.303Z,66.20
2018-11-07T15:12:37.447Z,66.60
2018-11-07T15:15:08.301Z,66.70
2018-11-07T15:17:37.281Z,66.90
2018-11-07T15:20:07.148Z,67.40
2018-11-07T15:22:36.419Z,67.30
2018-11-07T15:25:06.319Z,67.80
2018-11-07T15:27:35.196Z,67.90
2018-11-07T15:30:04.286Z,68.10
2018-11-07T15:32:33.219Z,67.90
2018-11-07T15:35:02.148Z,68.10
2018-11-07T15:37:31.096Z,68.30
2018-11-07T15:40:00.052Z,68.50
2018-11-07T15:42:28.956Z,68.60
2018-11-07T15:44:58.029Z,68.90
2018-11-07T15:47:26.973Z,68.90
2018-11-07T15:50:01.322Z,69.10
2018-11-07T15:52:30.488Z,69.80
2018-11-07T15:54:59.972Z,69.60
2018-11-07T15:57:29.068Z,69.50
2018-11-07T15:59:58.195Z,69.60
2018-11-07T16:02:27.073Z,69.70
2018-11-07T16:04:56.211Z,69.60
2018-11-07T16:07:25.166Z,69.70
2018-11-07T16:09:54.129Z,69.80
2018-11-07T16:12:23.138Z,69.80
2018-11-07T16:14:52.128Z,70.00
2018-11-07T16:17:21.106Z,70.20
2018-11-07T16:19:50.651Z,70.80
2018-11-07T16:22:19.565Z,71.20
2018-11-07T16:24:48.536Z,71.20
2018-11-07T16:27:17.510Z,71.50
2018-11-07T16:29:46.705Z,71.70
2018-11-07T16:32:15.664Z,71.70
2018-11-07T16:34:44.922Z,71.60
2018-11-07T16:37:13.860Z,71.70
2018-11-07T16:39:42.791Z,71.80
2018-11-07T16:42:11.700Z,72.00
2018-11-07T16:44:40.635Z,72.20
2018-11-07T16:47:09.681Z,72.80
2018-11-07T16:49:38.503Z,72.50
2018-11-07T16:52:08.089Z,72.90
2018-11-07T16:54:37.019Z,73.30
2018-11-07T16:57:06.460Z,73.50
2018-11-07T16:59:35.568Z,73.90
2018-11-07T17:02:04.900Z,73.90
2018-11-07T17:04:33.855Z,73.80
2018-11-07T17:07:03.398Z,73.80
2018-11-07T17:09:32.395Z,74.10
2018-11-07T17:12:01.673Z,74.60
2018-11-07T17:14:30.739Z,74.70
2018-11-07T17:16:59.681Z,75.00
2018-11-07T17:19:28.623Z,75.80
2018-11-07T17:21:57.637Z,75.20
2018-11-07T17:24:27.139Z,75.50
2018-11-07T17:26:57.228Z,75.80
2018-11-07T17:29:26.627Z,76.10
2018-11-07T17:31:55.996Z,76.00
2018-11-07T17:34:25.263Z,76.10
2018-11-07T17:36:54.205Z,76.70
2018-11-07T17:39:23.133Z,76.80
2018-11-07T17:41:52.101Z,76.80
2018-11-07T17:44:21.171Z,76.70
2018-11-07T17:46:50.133Z,76.80
2018-11-07T17:49:19.472Z,77.00
2018-11-07T17:51:48.505Z,77.30
2018-11-07T17:54:17.608Z,77.50
2018-11-07T17:56:46.551Z,77.60
2018-11-07T17:59:15.499Z,78.00
2018-11-07T18:01:44.539Z,78.40
2018-11-07T18:04:13.872Z,79.00
2018-11-07T18:06:42.879Z,78.80
2018-11-07T18:09:12.283Z,78.80
2018-11-07T18:11:41.311Z,78.90
2018-11-07T18:14:10.252Z,79.30
2018-11-07T18:16:39.405Z,79.10
2018-11-07T18:19:09.022Z,79.40
2018-11-07T18:21:37.948Z,79.30
2018-11-07T18:24:06.901Z,79.30
2018-11-07T18:26:35.902Z,80.00
2018-11-07T18:29:05.581Z,79.40
2018-11-07T18:31:34.529Z,79.40
2018-11-07T18:34:03.571Z,79.60
2018-11-07T18:36:32.534Z,79.60
2018-11-07T18:39:01.565Z,79.70
2018-11-07T18:41:30.556Z,79.80
2018-11-07T18:43:59.556Z,79.80
2018-11-07T18:46:28.515Z,80.00
2018-11-07T18:48:57.472Z,79.90
2018-11-07T18:51:26.498Z,79.90
2018-11-07T18:53:55.414Z,80.40
2018-11-07T18:56:24.417Z,80.30
2018-11-07T18:58:54.420Z,80.20
2018-11-07T19:01:23.268Z,80.10
2018-11-07T19:04:06.088Z,80.30
2018-11-07T19:06:38.770Z,80.50
2018-11-07T19:09:08.333Z,80.40
2018-11-07T19:11:36.516Z,80.50
2018-11-07T19:14:04.781Z,80.80
2018-11-07T19:16:33.126Z,81.00
2018-11-07T19:19:01.238Z,81.00
2018-11-07T19:21:29.671Z,81.10
2018-11-07T19:23:57.890Z,80.90
2018-11-07T19:26:26.004Z,80.80
2018-11-07T19:28:54.282Z,81.10
2018-11-07T19:31:22.411Z,81.30
2018-11-07T19:33:50.623Z,81.40
2018-11-07T19:36:19.353Z,81.40
2018-11-07T19:38:47.460Z,81.50
2018-11-07T19:41:15.917Z,81.70
2018-11-07T19:43:44.384Z,81.50
2018-11-07T19:46:12.504Z,81.50
2018-11-07T19:48:41.355Z,81.50
2018-11-07T19:51:10.378Z,82.80
2018-11-07T19:53:39.508Z,82.40
2018-11-07T19:56:08.451Z,82.10
2018-11-07T19:58:37.532Z,82.10
2018-11-07T20:01:06.497Z,82.10
2018-11-07T20:03:35.435Z,82.00
2018-11-07T20:06:04.614Z,82.10
2018-11-07T20:08:33.614Z,82.30
2018-11-07T20:11:02.792Z,82.60
2018-11-07T20:13:32.183Z,82.70
2018-11-07T20:16:01.494Z,82.60
2018-11-07T20:18:30.475Z,82.60
2018-11-07T20:20:59.558Z,82.70
2018-11-07T20:23:28.586Z,83.00
2018-11-07T20:25:57.667Z,83.40
2018-11-07T20:28:26.683Z,83.20
2018-11-07T20:30:55.759Z,83.20
2018-11-07T20:33:24.696Z,83.40
2018-11-07T20:35:53.910Z,83.40
2018-11-07T20:38:22.792Z,83.60
2018-11-07T20:40:51.922Z,83.90
2018-11-07T20:43:21.060Z,83.90
2018-11-07T20:45:50.917Z,83.90
2018-11-07T20:48:20.024Z,83.90
2018-11-07T20:50:48.976Z,84.10
2018-11-07T20:53:18.056Z,84.50
2018-11-07T20:55:47.080Z,84.40
2018-11-07T20:58:16.400Z,84.50
2018-11-07T21:00:45.475Z,84.30
2018-11-07T21:03:14.520Z,84.00
2018-11-07T21:05:43.612Z,83.90
2018-11-07T21:08:12.592Z,83.70
2018-11-07T21:10:41.797Z,83.90
2018-11-07T21:13:10.965Z,84.20
2018-11-07T21:15:41.160Z,84.40
2018-11-07T21:18:10.639Z,85.60
2018-11-07T21:20:40.987Z,85.40
2018-11-07T21:23:10.044Z,85.10
2018-11-07T21:25:39.857Z,85.00
2018-11-07T21:28:09.821Z,84.90
2018-11-07T21:30:38.900Z,84.80
2018-11-07T21:33:07.866Z,85.00
2018-11-07T21:35:37.341Z,84.90
2018-11-07T21:38:06.449Z,84.80
2018-11-07T21:40:35.947Z,85.00
2018-11-07T21:43:05.518Z,85.20
2018-11-07T21:45:34.395Z,85.20
2018-11-07T21:48:03.711Z,85.30
2018-11-07T21:50:32.910Z,85.30
2018-11-07T21:53:01.908Z,85.20
2018-11-07T21:55:31.479Z,85.30
2018-11-07T21:58:00.626Z,86.00
2018-11-07T22:00:30.191Z,85.40
2018-11-07T22:02:59.917Z,85.30
2018-11-07T22:05:29.286Z,85.40
2018-11-07T22:07:58.224Z,85.40
2018-11-07T22:10:27.147Z,85.40
2018-11-07T22:12:56.351Z,85.50
2018-11-07T22:15:25.611Z,85.70
2018-11-07T22:17:54.540Z,85.90
2018-11-07T22:20:23.554Z,86.20
2018-11-07T22:22:53.486Z,86.10
2018-11-07T22:25:22.428Z,86.40
2018-11-07T22:27:51.905Z,86.50
2018-11-07T22:30:21.487Z,86.60
2018-11-07T22:32:50.419Z,86.70
2018-11-07T22:35:19.389Z,86.90
2018-11-07T22:37:48.349Z,87.00
2018-11-07T22:40:18.563Z,87.20
2018-11-07T22:42:47.571Z,87.30
2018-11-07T22:45:16.587Z,87.60
2018-11-07T22:47:45.596Z,87.60
2018-11-07T22:50:15.404Z,87.70
2018-11-07T22:52:45.150Z,87.80
2018-11-07T22:55:14.452Z,87.80
2018-11-07T22:57:43.918Z,88.00
2018-11-07T23:00:31.460Z,88.00
2018-11-07T23:03:00.878Z,88.10
2018-11-07T23:05:30.231Z,88.20
2018-11-07T23:07:59.188Z,88.30
2018-11-07T23:10:28.121Z,88.50
2018-11-07T23:12:57.108Z,88.50
2018-11-07T23:16:00.658Z,88.50
2018-11-07T23:18:29.607Z,88.70
2018-11-07T23:20:58.597Z,88.80
2018-11-07T23:23:27.552Z,89.00
2018-11-07T23:25:56.701Z,88.90
2018-11-07T23:28:25.608Z,88.90
2018-11-07T23:30:54.757Z,88.80
2018-11-07T23:33:23.739Z,88.70
2018-11-07T23:35:52.711Z,88.90
2018-11-07T23:38:21.856Z,89.00
2018-11-07T23:40:51.108Z,88.80
2018-11-07T23:43:20.140Z,88.70
2018-11-07T23:45:49.092Z,88.50
2018-11-07T23:48:18.011Z,88.20
2018-11-07T23:50:46.915Z,87.90
2018-11-07T23:53:15.862Z,87.70
2018-11-07T23:55:44.848Z,87.80
2018-11-07T23:58:13.932Z,87.90
